createdAt,value
2023-03-04T00:03:32.618Z,3.33
2023-03-04T00:08:38.134Z,1.90
2023-03-04T00:13:39.853Z,2.07
2023-03-04T00:18:41.710Z,2.60
2023-03-04T00:23:43.751Z,2.87
2023-03-04T00:28:50.001Z,2.23
2023-03-04T00:33:56.661Z,2.67
2023-03-04T00:39:00.636Z,2.63
2023-03-04T00:44:07.063Z,2.67
2023-03-04T00:49:08.756Z,2.57
2023-03-04T00:54:12.796Z,2.50
2023-03-04T00:59:14.489Z,2.47
2023-03-04T01:04:16.144Z,2.10
2023-03-04T01:09:20.099Z,2.47
2023-03-04T01:14:24.233Z,2.50
2023-03-04T01:19:26.060Z,2.80
2023-03-04T01:24:29.926Z,2.50
2023-03-04T01:29:33.858Z,3.07
2023-03-04T01:34:37.329Z,3.57
2023-03-04T01:39:41.826Z,2.40
2023-03-04T01:44:44.197Z,2.37
2023-03-04T01:49:48.921Z,2.57
2023-03-04T01:54:51.813Z,2.77
2023-03-04T02:00:24.114Z,2.23
2023-03-04T02:05:40.223Z,2.90
2023-03-04T02:10:44.831Z,2.37
2023-03-04T02:15:46.761Z,2.67
2023-03-04T02:20:54.656Z,2.77
2023-03-04T02:26:15.973Z,2.30
2023-03-04T02:31:24.312Z,2.63
2023-03-04T02:36:29.505Z,2.53
2023-03-04T02:41:37.055Z,1.83
2023-03-04T02:46:41.222Z,2.00
2023-03-04T02:51:44.258Z,2.37
2023-03-04T02:56:50.485Z,2.80
2023-03-04T03:01:55.569Z,2.47
2023-03-04T03:06:57.552Z,2.53
2023-03-04T03:12:00.447Z,2.17
2023-03-04T03:17:03.470Z,2.80
2023-03-04T03:22:08.772Z,2.10
2023-03-04T03:27:10.510Z,2.57
2023-03-04T03:32:14.741Z,2.53
2023-03-04T03:37:16.790Z,2.63
2023-03-04T03:42:20.946Z,2.57
2023-03-04T03:47:28.088Z,2.00
2023-03-04T03:52:29.819Z,2.50
2023-03-04T03:57:38.424Z,2.80
2023-03-04T04:02:43.103Z,2.83
2023-03-04T04:07:48.019Z,2.07
2023-03-04T04:12:49.700Z,1.70
2023-03-04T04:17:53.627Z,3.23
2023-03-04T04:22:59.940Z,2.13
2023-03-04T04:28:01.693Z,2.30
2023-03-04T04:33:04.860Z,2.97
2023-03-04T04:38:11.480Z,2.90
2023-03-04T04:43:15.445Z,2.95
2023-03-04T04:48:17.208Z,3.17
2023-03-04T04:53:19.000Z,2.80
2023-03-04T04:58:20.707Z,3.17
2023-03-04T05:03:27.149Z,2.90
2023-03-04T05:08:31.094Z,3.23
2023-03-04T05:13:35.712Z,3.30
2023-03-04T05:18:37.608Z,3.33
2023-03-04T05:23:43.479Z,3.67
2023-03-04T05:28:45.515Z,2.83
2023-03-04T05:33:49.552Z,2.37
2023-03-04T05:38:53.518Z,2.70
2023-03-04T05:43:57.410Z,2.07
2023-03-04T05:49:01.453Z,3.40
2023-03-04T05:54:05.532Z,2.40
2023-03-04T05:59:09.438Z,4.40
2023-03-04T06:04:13.272Z,4.53
2023-03-04T06:09:15.021Z,2.80
2023-03-04T06:14:16.944Z,4.20
2023-03-04T06:19:21.152Z,4.37
2023-03-04T06:24:22.938Z,4.00
2023-03-04T06:29:29.461Z,3.90
2023-03-04T06:34:31.422Z,4.50
2023-03-04T06:39:35.654Z,4.87
2023-03-04T06:44:37.354Z,4.63
2023-03-04T06:49:41.279Z,5.23
2023-03-04T06:54:42.978Z,5.33
2023-03-04T06:59:44.684Z,4.33
2023-03-04T07:04:48.772Z,3.87
2023-03-04T07:09:50.510Z,3.77
2023-03-04T07:14:59.431Z,4.90
2023-03-04T07:20:01.143Z,4.53
2023-03-04T07:25:06.005Z,5.30
2023-03-04T07:30:11.216Z,3.73
2023-03-04T07:35:12.994Z,4.80
2023-03-04T07:40:19.593Z,3.90
2023-03-04T07:45:24.121Z,3.07
2023-03-04T07:50:28.351Z,2.67
2023-03-04T07:55:31.602Z,3.30
2023-03-04T08:00:34.115Z,4.20
2023-03-04T08:05:39.591Z,4.30
2023-03-04T08:10:43.618Z,3.90
2023-03-04T08:15:45.341Z,4.40
2023-03-04T08:20:49.327Z,4.53
2023-03-04T08:25:54.140Z,4.90
2023-03-04T08:30:58.206Z,4.27
2023-03-04T08:35:59.974Z,4.40
2023-03-04T08:41:04.445Z,4.50
2023-03-04T08:46:08.846Z,4.50
2023-03-04T08:51:15.354Z,3.70
2023-03-04T08:56:17.823Z,4.67
2023-03-04T09:01:25.584Z,4.13
2023-03-04T09:06:30.274Z,3.67
2023-03-04T09:11:32.057Z,3.43
2023-03-04T09:16:36.351Z,4.70
2023-03-04T09:21:40.423Z,3.60
2023-03-04T09:26:45.903Z,3.57
2023-03-04T09:31:49.824Z,4.10
2023-03-04T09:36:54.146Z,3.30
2023-03-04T09:42:09.022Z,5.00
2023-03-04T09:47:28.705Z,4.83
2023-03-04T09:52:55.019Z,3.70
2023-03-04T09:58:09.075Z,3.60
2023-03-04T10:03:20.347Z,4.70
2023-03-04T10:08:33.316Z,4.60
2023-03-04T10:13:55.687Z,3.83
2023-03-04T10:19:19.321Z,4.70
2023-03-04T10:24:25.100Z,4.03
2023-03-04T10:29:28.896Z,3.53
2023-03-04T10:34:30.816Z,4.20
2023-03-04T10:39:44.010Z,4.80
2023-03-04T10:45:00.304Z,4.60
2023-03-04T10:50:07.024Z,4.53
2023-03-04T10:55:18.057Z,4.83
2023-03-04T11:00:26.469Z,3.87
2023-03-04T11:05:36.582Z,4.27
2023-03-04T11:10:45.999Z,4.13
2023-03-04T11:15:58.214Z,4.60
2023-03-04T11:21:02.435Z,5.97
2023-03-04T11:26:39.954Z,5.47
2023-03-04T11:31:55.780Z,5.95
2023-03-04T11:37:21.485Z,5.83
2023-03-04T11:42:43.019Z,4.77
2023-03-04T11:48:03.199Z,4.40
2023-03-04T11:53:12.527Z,5.40
2023-03-04T11:58:43.883Z,4.63
2023-03-04T12:04:09.325Z,4.73
2023-03-04T12:09:21.334Z,5.20
2023-03-04T12:14:28.653Z,4.77
2023-03-04T12:20:30.273Z,4.50
2023-03-04T12:25:39.140Z,4.97
2023-03-04T12:30:58.718Z,4.13
2023-03-04T12:36:02.935Z,4.07
2023-03-04T12:41:37.403Z,3.37
2023-03-04T12:47:00.104Z,4.40
2023-03-04T12:52:39.540Z,4.50
2023-03-04T12:57:42.220Z,4.03
2023-03-04T13:03:06.546Z,3.83
2023-03-04T13:08:13.783Z,4.07
2023-03-04T13:13:40.657Z,3.53
2023-03-04T13:18:45.163Z,3.60
2023-03-04T13:23:49.074Z,3.40
2023-03-04T13:29:12.997Z,2.97
2023-03-04T13:34:48.976Z,3.13
2023-03-04T13:40:27.507Z,3.00
2023-03-04T13:45:47.252Z,2.73
2023-03-04T13:50:49.652Z,3.13
2023-03-04T13:56:31.343Z,3.10
2023-03-04T14:01:49.310Z,3.23
2023-03-04T14:06:53.133Z,2.67
2023-03-04T14:12:05.781Z,3.07
2023-03-04T14:17:17.904Z,3.07
2023-03-04T14:22:28.007Z,3.50
2023-03-04T14:27:33.093Z,3.23
2023-03-04T14:32:35.064Z,3.20
2023-03-04T14:37:50.047Z,2.90
2023-03-04T14:42:59.726Z,3.73
2023-03-04T14:48:05.645Z,3.63
2023-03-04T14:53:07.357Z,2.77
2023-03-04T14:58:20.072Z,2.83
2023-03-04T15:03:34.442Z,3.70
2023-03-04T15:08:38.082Z,3.67
2023-03-04T15:13:45.887Z,3.60
2023-03-04T15:19:20.872Z,3.53
2023-03-04T15:24:22.630Z,3.67
2023-03-04T15:29:28.916Z,4.17
2023-03-04T15:34:31.488Z,3.80
2023-03-04T15:39:35.588Z,3.73
2023-03-04T15:44:42.123Z,3.77
2023-03-04T15:49:49.498Z,4.90
2023-03-04T15:54:55.572Z,3.97
2023-03-04T15:59:58.119Z,4.47
2023-03-04T16:05:05.450Z,4.00
2023-03-04T16:10:12.686Z,4.10
2023-03-04T16:15:30.247Z,4.13
2023-03-04T16:20:37.654Z,3.80
2023-03-04T16:25:42.732Z,3.60
2023-03-04T16:30:44.806Z,4.80
2023-03-04T16:35:52.306Z,3.47
2023-03-04T16:40:58.222Z,3.20
2023-03-04T16:46:03.167Z,3.10
2023-03-04T16:51:15.288Z,2.83
2023-03-04T16:56:20.542Z,2.57
2023-03-04T17:01:27.165Z,3.03
2023-03-04T17:06:28.984Z,2.33
2023-03-04T17:11:33.702Z,3.13
2023-03-04T17:16:36.077Z,3.30
2023-03-04T17:21:45.175Z,3.13
2023-03-04T17:26:53.631Z,2.60
2023-03-04T17:31:55.523Z,3.20
2023-03-04T17:36:59.369Z,2.63
2023-03-04T17:42:06.135Z,2.83
2023-03-04T17:47:10.490Z,2.97
2023-03-04T17:52:14.788Z,2.87
2023-03-04T17:57:21.137Z,2.57
2023-03-04T18:02:23.311Z,2.07
2023-03-04T18:07:25.112Z,1.97
2023-03-04T18:12:26.847Z,3.00
2023-03-04T18:17:28.607Z,3.00
2023-03-04T18:22:31.209Z,3.03
2023-03-04T18:27:35.559Z,2.57
2023-03-04T18:32:51.024Z,2.70
2023-03-04T18:37:55.801Z,3.00
2023-03-04T18:43:00.200Z,2.83
2023-03-04T18:48:05.309Z,2.77
2023-03-04T18:53:06.990Z,3.40
2023-03-04T18:58:08.734Z,2.40
2023-03-04T19:03:12.211Z,2.03
2023-03-04T19:08:17.469Z,2.60
2023-03-04T19:13:21.898Z,2.53
2023-03-04T19:18:28.317Z,3.27
2023-03-04T19:23:30.459Z,2.97
2023-03-04T19:28:34.998Z,2.57
2023-03-04T19:33:42.389Z,2.93
2023-03-04T19:38:44.157Z,2.30
2023-03-04T19:43:46.090Z,2.67
2023-03-04T19:48:52.763Z,2.83
2023-03-04T19:53:56.661Z,3.10
2023-03-04T19:59:06.625Z,3.10
2023-03-04T20:04:11.381Z,2.33
2023-03-04T20:09:18.926Z,1.57
2023-03-04T20:14:20.624Z,1.70
2023-03-04T20:19:22.420Z,1.97
2023-03-04T20:24:29.035Z,2.50
2023-03-04T20:29:33.081Z,2.00
2023-03-04T20:34:36.901Z,2.63
2023-03-04T20:39:38.703Z,2.37
2023-03-04T20:44:40.462Z,2.40
2023-03-04T20:49:42.203Z,3.03
2023-03-04T20:54:44.160Z,2.13
2023-03-04T20:59:48.194Z,1.80
2023-03-04T21:04:50.126Z,1.90
2023-03-04T21:09:51.902Z,2.30
2023-03-04T21:14:55.877Z,3.23
2023-03-04T21:19:57.634Z,8.63
2023-03-04T21:25:01.574Z,3.83
2023-03-04T21:30:03.436Z,2.87
2023-03-04T21:35:05.592Z,2.27
2023-03-04T21:40:11.053Z,2.03
2023-03-04T21:45:12.763Z,2.83
2023-03-04T21:50:17.254Z,2.70
2023-03-04T21:55:21.559Z,3.10
2023-03-04T22:00:23.346Z,3.27
2023-03-04T22:05:25.100Z,3.37
2023-03-04T22:10:31.500Z,2.70
2023-03-04T22:15:33.213Z,2.43
2023-03-04T22:20:39.098Z,2.30
2023-03-04T22:25:41.486Z,2.20
2023-03-04T22:30:45.436Z,2.07
2023-03-04T22:35:47.164Z,2.13
2023-03-04T22:40:51.832Z,2.20
2023-03-04T22:45:54.535Z,2.17
2023-03-04T22:50:58.479Z,1.80
2023-03-04T22:56:00.148Z,2.60
2023-03-04T23:01:03.226Z,1.70
2023-03-04T23:06:15.360Z,2.30
2023-03-04T23:11:26.440Z,2.23
2023-03-04T23:16:33.051Z,1.93
2023-03-04T23:21:38.113Z,1.67
2023-03-04T23:26:40.927Z,1.50
2023-03-04T23:31:44.232Z,1.67
2023-03-04T23:36:45.928Z,1.60
2023-03-04T23:41:49.710Z,1.60
2023-03-04T23:46:51.387Z,2.03
2023-03-04T23:51:55.311Z,1.73
2023-03-04T23:57:02.125Z,3.20
